createdAt,value
2024-03-16T00:01:01.985Z,14.10
2024-03-16T00:03:30.579Z,12.20
2024-03-16T00:05:58.706Z,12.73
2024-03-16T00:08:26.607Z,14.65
2024-03-16T00:10:54.477Z,12.35
2024-03-16T00:13:22.241Z,13.52
2024-03-16T00:15:51.439Z,14.07
2024-03-16T00:18:19.161Z,12.38
2024-03-16T00:20:47.064Z,12.30
2024-03-16T00:23:14.754Z,12.98
2024-03-16T00:25:42.441Z,13.10
2024-03-16T00:28:11.977Z,14.35
2024-03-16T00:30:39.856Z,16.08
2024-03-16T00:33:08.422Z,14.70
2024-03-16T00:35:36.644Z,14.50
2024-03-16T00:38:04.602Z,14.73
2024-03-16T00:40:32.537Z,12.20
2024-03-16T00:43:00.525Z,12.60
2024-03-16T00:45:28.505Z,12.13
2024-03-16T00:47:57.155Z,12.98
2024-03-16T00:50:24.893Z,17.80
2024-03-16T00:52:52.766Z,12.05
2024-03-16T00:55:20.866Z,15.73
2024-03-16T00:57:48.556Z,11.50
2024-03-16T01:00:16.490Z,15.10
2024-03-16T01:02:44.160Z,11.75
2024-03-16T01:05:13.134Z,11.95
2024-03-16T01:07:40.761Z,13.77
2024-03-16T01:10:09.127Z,12.57
2024-03-16T01:12:37.146Z,12.70
2024-03-16T01:15:05.391Z,12.40
2024-03-16T01:17:34.209Z,18.52
2024-03-16T01:20:02.106Z,14.50
2024-03-16T01:22:29.992Z,13.20
2024-03-16T01:24:57.686Z,15.55
2024-03-16T01:27:25.327Z,19.15
2024-03-16T01:29:52.956Z,17.95
2024-03-16T01:32:20.636Z,19.38
2024-03-16T01:34:48.939Z,13.90
2024-03-16T01:37:17.393Z,15.45
2024-03-16T01:39:45.790Z,16.75
2024-03-16T01:42:13.962Z,16.00
2024-03-16T01:44:41.836Z,16.52
2024-03-16T01:47:09.948Z,20.85
2024-03-16T01:49:37.681Z,15.10
2024-03-16T01:52:05.631Z,12.85
2024-03-16T01:54:33.957Z,17.52
2024-03-16T01:57:01.801Z,16.58
2024-03-16T01:59:29.630Z,16.42
2024-03-16T02:01:57.567Z,18.38
2024-03-16T02:04:25.258Z,15.85
2024-03-16T02:06:53.640Z,19.55
2024-03-16T02:09:22.296Z,17.05
2024-03-16T02:11:50.961Z,18.67
2024-03-16T02:14:19.507Z,17.73
2024-03-16T02:16:49.026Z,18.20
2024-03-16T02:19:17.247Z,19.98
2024-03-16T02:21:44.851Z,16.60
2024-03-16T02:24:14.323Z,19.45
2024-03-16T02:26:42.424Z,25.73
2024-03-16T02:29:10.886Z,17.98
2024-03-16T02:31:39.423Z,16.98
2024-03-16T02:34:08.481Z,18.63
2024-03-16T02:36:36.310Z,18.98
2024-03-16T02:39:04.317Z,22.67
2024-03-16T02:41:32.658Z,19.25
2024-03-16T02:44:00.374Z,17.85
2024-03-16T02:46:28.042Z,20.67
2024-03-16T02:48:56.092Z,18.58
2024-03-16T02:51:24.301Z,24.25
2024-03-16T02:53:52.645Z,23.05
2024-03-16T02:56:20.907Z,21.10
2024-03-16T02:58:48.587Z,21.63
2024-03-16T03:01:17.559Z,25.23
2024-03-16T03:03:45.568Z,21.90
2024-03-16T03:06:13.707Z,22.58
2024-03-16T03:08:41.482Z,21.60
2024-03-16T03:11:09.868Z,26.40
2024-03-16T03:13:37.594Z,20.15
2024-03-16T03:16:05.575Z,21.83
2024-03-16T03:18:33.973Z,22.40
2024-03-16T03:21:01.781Z,19.23
2024-03-16T03:23:29.711Z,18.88
2024-03-16T03:25:57.985Z,20.38
2024-03-16T03:28:25.782Z,19.23
2024-03-16T03:30:54.571Z,18.85
2024-03-16T03:33:22.392Z,17.80
2024-03-16T03:35:50.367Z,25.95
2024-03-16T03:38:18.068Z,24.55
2024-03-16T03:40:45.899Z,19.35
2024-03-16T03:43:20.550Z,22.30
2024-03-16T03:45:52.100Z,22.75
2024-03-16T03:48:37.496Z,19.45
2024-03-16T03:51:05.824Z,22.95
2024-03-16T03:53:33.858Z,17.27
2024-03-16T03:56:02.062Z,19.27
2024-03-16T03:58:30.226Z,22.50
2024-03-16T04:00:58.170Z,26.35
2024-03-16T04:03:27.080Z,22.35
2024-03-16T04:05:55.067Z,22.73
2024-03-16T04:08:22.992Z,19.92
2024-03-16T04:10:50.676Z,16.38
2024-03-16T04:13:18.513Z,20.08
2024-03-16T04:15:46.332Z,19.60
2024-03-16T04:18:13.906Z,21.50
2024-03-16T04:20:41.902Z,27.63
2024-03-16T04:23:10.246Z,20.88
2024-03-16T04:25:37.922Z,22.08
2024-03-16T04:28:06.375Z,23.75
2024-03-16T04:30:34.209Z,21.40
2024-03-16T04:33:02.127Z,20.10
2024-03-16T04:35:30.442Z,24.38
2024-03-16T04:37:58.386Z,21.98
2024-03-16T04:40:26.192Z,19.92
2024-03-16T04:42:53.924Z,21.35
2024-03-16T04:45:22.164Z,27.60
2024-03-16T04:47:49.867Z,19.55
2024-03-16T04:50:17.928Z,23.13
2024-03-16T04:52:45.577Z,12.25
2024-03-16T04:55:13.330Z,8.50
2024-03-16T04:57:41.719Z,8.60
2024-03-16T05:00:12.725Z,7.93
2024-03-16T05:02:40.503Z,7.45
2024-03-16T05:05:09.162Z,7.40
2024-03-16T05:07:36.904Z,7.20
2024-03-16T05:10:06.022Z,7.57
2024-03-16T05:12:34.769Z,7.55
2024-03-16T05:15:02.633Z,7.82
2024-03-16T05:17:30.356Z,8.25
2024-03-16T05:19:59.302Z,8.30
2024-03-16T05:22:27.887Z,8.32
2024-03-16T05:24:56.038Z,8.27
2024-03-16T05:27:23.772Z,9.32
2024-03-16T05:29:52.661Z,8.35
2024-03-16T05:32:20.369Z,9.90
2024-03-16T05:34:48.160Z,9.35
2024-03-16T05:37:15.916Z,11.65
2024-03-16T05:39:43.720Z,9.02
2024-03-16T05:42:13.472Z,9.73
2024-03-16T05:44:41.324Z,10.15
2024-03-16T05:47:09.261Z,9.68
2024-03-16T05:49:39.458Z,10.07
2024-03-16T05:52:07.219Z,11.57
2024-03-16T05:54:35.520Z,11.88
2024-03-16T05:57:04.868Z,15.88
2024-03-16T05:59:34.653Z,14.45
2024-03-16T06:02:02.495Z,15.38
2024-03-16T06:04:30.250Z,11.40
2024-03-16T06:06:57.922Z,12.88
2024-03-16T06:09:25.656Z,12.55
2024-03-16T06:11:53.347Z,11.35
2024-03-16T06:14:21.110Z,13.30
2024-03-16T06:16:49.292Z,11.07
2024-03-16T06:19:17.254Z,12.18
2024-03-16T06:21:46.381Z,7.80
2024-03-16T06:24:14.187Z,9.32
2024-03-16T06:26:42.824Z,10.70
2024-03-16T06:29:10.795Z,10.48
2024-03-16T06:31:39.965Z,8.35
2024-03-16T06:34:08.245Z,11.68
2024-03-16T06:36:36.875Z,11.48
2024-03-16T06:39:07.656Z,13.65
2024-03-16T06:41:35.918Z,10.07
2024-03-16T06:44:04.032Z,10.43
2024-03-16T06:46:33.597Z,12.63
2024-03-16T06:49:07.625Z,15.23
2024-03-16T06:51:36.118Z,15.65
2024-03-16T06:54:05.420Z,12.50
2024-03-16T06:56:33.416Z,12.93
2024-03-16T06:59:01.802Z,16.33
2024-03-16T07:01:30.044Z,12.80
2024-03-16T07:03:58.265Z,18.83
2024-03-16T07:06:26.016Z,10.38
2024-03-16T07:08:53.636Z,15.48
2024-03-16T07:11:21.458Z,9.68
2024-03-16T07:13:49.605Z,12.32
2024-03-16T07:16:17.397Z,14.40
2024-03-16T07:18:45.461Z,14.73
2024-03-16T07:21:15.388Z,11.77
2024-03-16T07:23:43.184Z,11.45
2024-03-16T07:26:11.504Z,13.20
2024-03-16T07:28:39.807Z,10.02
2024-03-16T07:31:07.852Z,12.73
2024-03-16T07:33:36.278Z,13.32
2024-03-16T07:36:05.168Z,15.18
2024-03-16T07:38:32.970Z,16.23
2024-03-16T07:41:00.937Z,12.35
2024-03-16T07:43:28.675Z,12.23
2024-03-16T07:45:56.422Z,14.20
2024-03-16T07:48:26.878Z,13.05
2024-03-16T07:51:00.984Z,13.18
2024-03-16T07:53:29.141Z,11.95
2024-03-16T07:55:58.818Z,13.35
2024-03-16T07:58:26.809Z,12.02
2024-03-16T08:00:54.536Z,11.13
2024-03-16T08:03:22.410Z,12.38
2024-03-16T08:05:50.924Z,12.30
2024-03-16T08:08:19.156Z,11.93
2024-03-16T08:10:47.206Z,11.95
2024-03-16T08:13:15.428Z,11.93
2024-03-16T08:15:43.198Z,11.27
2024-03-16T08:18:12.482Z,10.90
2024-03-16T08:20:41.008Z,11.27
2024-03-16T08:23:08.775Z,9.75
2024-03-16T08:25:36.460Z,10.60
2024-03-16T08:28:04.799Z,9.82
2024-03-16T08:30:32.824Z,10.85
2024-03-16T08:33:00.628Z,11.45
2024-03-16T08:35:28.424Z,11.05
2024-03-16T08:37:56.105Z,11.20
2024-03-16T08:40:23.873Z,11.63
2024-03-16T08:42:53.150Z,11.02
2024-03-16T08:45:21.335Z,12.40
2024-03-16T08:47:49.643Z,10.70
2024-03-16T08:50:17.383Z,10.77
2024-03-16T08:52:46.329Z,10.02
2024-03-16T08:55:14.667Z,11.00
2024-03-16T08:57:43.001Z,8.98
2024-03-16T09:00:14.568Z,9.00
2024-03-16T09:02:42.732Z,8.35
2024-03-16T09:05:10.400Z,8.10
2024-03-16T09:07:39.854Z,8.98
2024-03-16T09:10:08.521Z,7.45
2024-03-16T09:12:36.836Z,7.82
2024-03-16T09:15:06.404Z,8.18
2024-03-16T09:17:35.162Z,9.02
2024-03-16T09:20:08.455Z,7.85
2024-03-16T09:22:37.590Z,6.90
2024-03-16T09:25:06.751Z,7.72
2024-03-16T09:27:35.530Z,8.98
2024-03-16T09:30:05.880Z,7.38
2024-03-16T09:32:33.537Z,7.70
2024-03-16T09:35:01.286Z,7.18
2024-03-16T09:37:29.093Z,7.57
2024-03-16T09:39:57.343Z,7.55
2024-03-16T09:42:25.108Z,8.18
